createdAt,value
2023-02-04T00:03:28.883Z,10.00
2023-02-04T00:07:29.706Z,10.60
2023-02-04T00:11:32.676Z,10.57
2023-02-04T00:15:35.664Z,13.20
2023-02-04T00:19:41.511Z,16.80
2023-02-04T00:23:53.563Z,14.00
2023-02-04T00:27:54.717Z,15.93
2023-02-04T00:32:02.009Z,11.60
2023-02-04T00:36:05.216Z,16.50
2023-02-04T00:40:07.332Z,11.53
2023-02-04T00:44:08.344Z,12.97
2023-02-04T00:48:09.234Z,16.00
2023-02-04T00:52:14.942Z,16.73
2023-02-04T00:56:16.093Z,12.33
2023-02-04T01:00:21.488Z,9.10
2023-02-04T01:04:26.281Z,11.70
2023-02-04T01:08:36.533Z,11.10
2023-02-04T01:12:39.470Z,11.20
2023-02-04T01:16:42.482Z,13.73
2023-02-04T01:20:46.177Z,13.60
2023-02-04T01:24:52.027Z,13.17
2023-02-04T01:29:13.487Z,17.60
2023-02-04T01:33:14.280Z,10.77
2023-02-04T01:37:25.440Z,12.80
2023-02-04T01:41:43.563Z,12.67
2023-02-04T01:45:48.906Z,9.40
2023-02-04T01:49:56.301Z,10.47
2023-02-04T01:53:57.484Z,14.87
2023-02-04T01:58:02.548Z,14.50
2023-02-04T02:02:06.222Z,11.87
2023-02-04T02:06:09.360Z,13.17
2023-02-04T02:10:14.483Z,12.87
2023-02-04T02:14:21.915Z,11.00
2023-02-04T02:18:25.378Z,13.33
2023-02-04T02:22:38.443Z,15.07
2023-02-04T02:26:42.542Z,15.23
2023-02-04T02:30:49.272Z,12.33
2023-02-04T02:34:52.418Z,13.13
2023-02-04T02:38:53.388Z,10.83
2023-02-04T02:42:58.624Z,11.97
2023-02-04T02:46:59.401Z,12.27
2023-02-04T02:51:00.544Z,12.43
2023-02-04T02:55:01.298Z,10.30
2023-02-04T02:59:23.751Z,13.83
2023-02-04T03:03:30.971Z,8.50
2023-02-04T03:07:31.698Z,11.63
2023-02-04T03:11:32.793Z,8.30
2023-02-04T03:15:40.249Z,12.03
2023-02-04T03:19:42.680Z,11.27
2023-02-04T03:23:45.312Z,11.97
2023-02-04T03:27:47.809Z,10.00
2023-02-04T03:31:52.824Z,7.67
2023-02-04T03:35:56.035Z,10.20
2023-02-04T03:39:56.849Z,14.37
2023-02-04T03:43:59.524Z,10.63
2023-02-04T03:48:04.569Z,7.70
2023-02-04T03:52:08.196Z,11.87
2023-02-04T03:56:10.605Z,8.60
2023-02-04T04:00:13.843Z,10.17
2023-02-04T04:04:17.303Z,11.93
2023-02-04T04:08:18.507Z,7.27
2023-02-04T04:12:20.347Z,12.83
2023-02-04T04:16:20.990Z,11.43
2023-02-04T04:20:25.875Z,9.63
2023-02-04T04:24:27.884Z,8.87
2023-02-04T04:28:28.662Z,12.50
2023-02-04T04:32:29.174Z,12.77
2023-02-04T04:36:32.336Z,8.17
2023-02-04T04:40:34.287Z,11.13
2023-02-04T04:44:35.418Z,9.07
2023-02-04T04:48:36.454Z,8.43
2023-02-04T04:52:41.872Z,3.40
2023-02-04T04:56:42.208Z,4.30
2023-02-04T05:00:43.601Z,3.23
2023-02-04T05:04:44.907Z,3.10
2023-02-04T05:08:51.099Z,2.27
2023-02-04T05:12:52.624Z,4.17
2023-02-04T05:16:55.643Z,2.30
2023-02-04T05:20:58.198Z,2.13
2023-02-04T05:25:04.557Z,1.57
2023-02-04T05:29:10.432Z,1.97
2023-02-04T05:33:11.090Z,2.87
2023-02-04T05:37:15.753Z,0.83
2023-02-04T05:41:19.119Z,2.03
2023-02-04T05:45:23.684Z,1.70
2023-02-04T05:49:25.221Z,0.60
2023-02-04T05:53:26.272Z,2.70
2023-02-04T05:57:29.885Z,2.83
2023-02-04T06:01:31.972Z,1.37
2023-02-04T06:05:37.808Z,1.33
2023-02-04T06:09:38.669Z,1.43
2023-02-04T06:13:42.484Z,1.13
2023-02-04T06:17:44.067Z,2.37
2023-02-04T06:21:44.461Z,1.90
2023-02-04T06:25:45.402Z,2.90
2023-02-04T06:29:50.233Z,1.77
2023-02-04T06:33:51.460Z,1.73
2023-02-04T06:37:54.114Z,1.70
2023-02-04T06:41:56.491Z,1.20
2023-02-04T06:45:59.634Z,1.20
2023-02-04T06:50:02.203Z,2.20
2023-02-04T06:54:03.519Z,1.37
2023-02-04T06:58:03.988Z,1.90
2023-02-04T07:02:10.044Z,3.30
2023-02-04T07:06:10.846Z,2.17
2023-02-04T07:10:12.774Z,4.37
2023-02-04T07:14:15.576Z,2.43
2023-02-04T07:18:20.120Z,1.90
2023-02-04T07:22:21.160Z,3.23
2023-02-04T07:26:22.842Z,3.60
2023-02-04T07:30:24.799Z,2.80
2023-02-04T07:34:28.382Z,2.73
2023-02-04T07:38:30.027Z,2.53
2023-02-04T07:42:30.824Z,1.77
2023-02-04T07:46:43.336Z,3.40
2023-02-04T07:50:49.326Z,2.53
2023-02-04T07:54:49.888Z,2.20
2023-02-04T07:58:53.636Z,1.63
2023-02-04T08:02:56.805Z,3.50
2023-02-04T08:07:00.954Z,2.90
2023-02-04T08:11:09.027Z,2.60
2023-02-04T08:15:13.222Z,3.97
2023-02-04T08:19:18.998Z,4.73
2023-02-04T08:23:22.870Z,5.87
2023-02-04T08:27:23.805Z,5.17
2023-02-04T08:31:24.658Z,4.27
2023-02-04T08:35:25.565Z,3.83
2023-02-04T08:39:29.718Z,2.40
2023-02-04T08:43:31.337Z,1.90
2023-02-04T08:47:34.395Z,2.77
2023-02-04T08:51:37.503Z,5.90
2023-02-04T08:55:40.846Z,3.17
2023-02-04T08:59:41.347Z,2.70
2023-02-04T09:03:42.473Z,1.70
2023-02-04T09:07:48.332Z,5.03
2023-02-04T09:11:53.055Z,1.20
2023-02-04T09:15:55.626Z,1.57
2023-02-04T09:19:56.740Z,1.03
2023-02-04T09:24:04.360Z,1.53
2023-02-04T09:28:10.233Z,1.97
2023-02-04T09:32:17.557Z,1.20
2023-02-04T09:36:18.974Z,0.80
2023-02-04T09:40:22.784Z,1.30
2023-02-04T09:44:30.774Z,0.90
2023-02-04T09:48:31.808Z,2.13
2023-02-04T09:52:34.167Z,1.73
2023-02-04T09:56:35.030Z,0.97
2023-02-04T10:00:43.888Z,1.30
2023-02-04T10:04:44.729Z,0.83
2023-02-04T10:08:47.921Z,0.80
2023-02-04T10:12:56.852Z,1.80
2023-02-04T10:17:04.986Z,0.50
2023-02-04T10:21:21.258Z,0.50
2023-02-04T10:25:25.481Z,1.43
2023-02-04T10:29:27.851Z,1.20
2023-02-04T10:33:31.957Z,0.97
2023-02-04T10:37:33.512Z,0.57
2023-02-04T10:41:38.788Z,1.03
2023-02-04T10:45:39.641Z,0.70
2023-02-04T10:49:43.274Z,0.73
2023-02-04T10:53:56.193Z,0.93
2023-02-04T10:58:02.382Z,1.20
2023-02-04T11:02:19.642Z,1.40
2023-02-04T11:06:27.371Z,1.10
2023-02-04T11:10:35.262Z,1.20
2023-02-04T11:14:35.767Z,1.73
2023-02-04T11:18:50.376Z,1.40
2023-02-04T11:22:54.886Z,1.60
2023-02-04T11:27:09.300Z,1.30
2023-02-04T11:31:32.065Z,0.87
2023-02-04T11:35:34.078Z,1.10
2023-02-04T11:39:42.565Z,1.33
2023-02-04T11:43:43.261Z,1.27
2023-02-04T11:47:46.351Z,1.17
2023-02-04T11:51:47.930Z,1.40
2023-02-04T11:55:51.141Z,0.70
2023-02-04T11:59:51.857Z,1.40
2023-02-04T12:04:01.322Z,0.80
2023-02-04T12:08:17.336Z,1.50
2023-02-04T12:12:28.924Z,1.30
2023-02-04T12:16:30.671Z,1.57
2023-02-04T12:20:31.467Z,1.40
2023-02-04T12:24:32.021Z,1.63
2023-02-04T12:28:35.226Z,2.30
2023-02-04T12:32:37.918Z,2.50
2023-02-04T12:36:38.780Z,1.20
2023-02-04T12:40:43.485Z,1.30
2023-02-04T12:44:47.556Z,1.53
2023-02-04T12:48:50.610Z,4.53
2023-02-04T12:52:53.914Z,0.80
2023-02-04T12:56:58.196Z,1.80
2023-02-04T13:01:04.155Z,2.90
2023-02-04T13:05:05.024Z,1.90
2023-02-04T13:09:06.083Z,2.27
2023-02-04T13:13:07.648Z,1.47
2023-02-04T13:17:11.980Z,3.03
2023-02-04T13:21:12.595Z,2.50
2023-02-04T13:25:14.909Z,0.50
2023-02-04T13:29:17.906Z,0.55
2023-02-04T13:33:21.017Z,1.25
2023-02-04T13:37:23.645Z,1.77
2023-02-04T13:41:23.988Z,2.67
2023-02-04T13:45:25.953Z,2.40
2023-02-04T13:49:30.490Z,1.23
2023-02-04T13:53:32.031Z,2.08
2023-02-04T13:57:33.356Z,3.38
2023-02-04T14:01:33.951Z,2.63
2023-02-04T14:05:38.561Z,4.27
2023-02-04T14:09:41.085Z,2.40
2023-02-04T14:13:41.628Z,2.50
2023-02-04T14:17:44.519Z,1.77
2023-02-04T14:21:50.349Z,3.17
2023-02-04T14:25:50.827Z,6.03
2023-02-04T14:29:51.324Z,7.57
2023-02-04T14:33:52.332Z,7.93
2023-02-04T14:37:55.712Z,7.57
2023-02-04T14:41:56.356Z,5.13
2023-02-04T14:45:57.353Z,2.70
2023-02-04T14:50:00.978Z,2.00
2023-02-04T14:54:03.921Z,1.90
2023-02-04T14:58:04.942Z,2.87
2023-02-04T15:02:07.206Z,3.50
2023-02-04T15:06:13.489Z,1.10
2023-02-04T15:10:18.156Z,2.63
2023-02-04T15:14:19.036Z,2.73
2023-02-04T15:18:20.504Z,3.90
2023-02-04T15:22:21.180Z,2.70
2023-02-04T15:26:25.195Z,5.53
2023-02-04T15:30:26.442Z,4.13
2023-02-04T15:34:27.298Z,4.00
2023-02-04T15:38:28.324Z,4.17
2023-02-04T15:42:33.460Z,4.63
2023-02-04T15:46:35.026Z,6.23
2023-02-04T15:50:38.554Z,4.70
2023-02-04T15:54:40.266Z,5.20
2023-02-04T15:58:43.321Z,7.20
2023-02-04T16:02:44.535Z,3.77
2023-02-04T16:06:58.054Z,4.07
2023-02-04T16:10:59.635Z,8.23
2023-02-04T16:15:02.875Z,7.47
2023-02-04T16:19:03.891Z,11.27
2023-02-04T16:23:04.451Z,21.27
2023-02-04T16:27:04.732Z,15.43
2023-02-04T16:31:09.857Z,11.37
2023-02-04T16:35:12.121Z,14.87
2023-02-04T16:39:14.154Z,16.43
2023-02-04T16:43:14.875Z,26.97
2023-02-04T16:47:18.007Z,26.50
2023-02-04T16:51:20.631Z,25.63
2023-02-04T16:55:21.309Z,18.40
2023-02-04T16:59:21.921Z,20.90
2023-02-04T17:03:25.186Z,14.37
2023-02-04T17:07:25.811Z,10.70
2023-02-04T17:11:33.139Z,8.87
2023-02-04T17:15:33.991Z,5.83
2023-02-04T17:19:47.257Z,9.73
2023-02-04T17:23:48.194Z,12.00
2023-02-04T17:27:50.710Z,11.20
2023-02-04T17:31:53.137Z,9.33
2023-02-04T17:35:56.816Z,7.37
2023-02-04T17:39:57.203Z,7.60
2023-02-04T17:43:59.115Z,7.70
2023-02-04T17:48:00.155Z,5.53
2023-02-04T17:52:04.558Z,4.30
2023-02-04T17:56:06.434Z,6.17
2023-02-04T18:00:17.326Z,5.90
2023-02-04T18:04:18.163Z,3.40
2023-02-04T18:08:25.067Z,3.13
2023-02-04T18:12:28.674Z,4.00
2023-02-04T18:16:34.059Z,4.10
2023-02-04T18:20:37.871Z,3.70
2023-02-04T18:24:45.178Z,4.43
2023-02-04T18:28:50.451Z,9.87
2023-02-04T18:32:53.596Z,16.73
2023-02-04T18:36:55.386Z,7.27
2023-02-04T18:41:18.476Z,15.13
2023-02-04T18:45:28.592Z,14.70
2023-02-04T18:49:33.501Z,9.50
2023-02-04T18:53:40.773Z,11.00
2023-02-04T18:57:47.498Z,10.30
2023-02-04T19:01:51.446Z,12.23
2023-02-04T19:05:53.663Z,16.17
2023-02-04T19:09:55.031Z,19.60
2023-02-04T19:14:05.184Z,21.00
2023-02-04T19:18:25.741Z,29.80
2023-02-04T19:22:40.613Z,23.37
2023-02-04T19:26:56.396Z,20.77
2023-02-04T19:31:04.450Z,17.10
2023-02-04T19:35:22.867Z,14.63
2023-02-04T19:39:39.146Z,13.40
2023-02-04T19:43:45.897Z,11.50
2023-02-04T19:47:56.010Z,13.93
2023-02-04T19:52:02.182Z,14.87
2023-02-04T19:56:04.664Z,17.77
2023-02-04T20:00:06.308Z,12.80
2023-02-04T20:04:23.600Z,18.70
2023-02-04T20:08:55.127Z,24.30
2023-02-04T20:13:02.695Z,19.37
2023-02-04T20:17:14.083Z,20.37
2023-02-04T20:21:18.370Z,21.13
2023-02-04T20:25:49.221Z,21.57
2023-02-04T20:29:58.930Z,20.23
2023-02-04T20:34:03.606Z,20.40
2023-02-04T20:38:20.578Z,16.63
2023-02-04T20:42:48.293Z,18.57
2023-02-04T20:46:52.872Z,18.13
2023-02-04T20:50:58.761Z,15.30
2023-02-04T20:55:07.002Z,12.57
2023-02-04T20:59:37.572Z,14.37
2023-02-04T21:03:47.846Z,18.83
2023-02-04T21:07:49.114Z,20.57
2023-02-04T21:11:56.295Z,17.67
2023-02-04T21:16:02.145Z,15.30
2023-02-04T21:20:02.957Z,16.63
2023-02-04T21:24:13.793Z,13.90
2023-02-04T21:28:18.756Z,13.00
2023-02-04T21:32:25.954Z,14.33
2023-02-04T21:36:28.323Z,15.53
2023-02-04T21:40:29.966Z,13.83
2023-02-04T21:44:33.916Z,14.77
2023-02-04T21:48:41.761Z,13.90
2023-02-04T21:52:45.098Z,14.40
2023-02-04T21:56:48.724Z,10.70
2023-02-04T22:00:54.224Z,16.47
2023-02-04T22:04:56.415Z,16.60
2023-02-04T22:08:57.306Z,17.20
2023-02-04T22:12:58.094Z,15.83
2023-02-04T22:17:01.351Z,14.37
2023-02-04T22:21:02.241Z,9.87
2023-02-04T22:25:02.649Z,7.10
2023-02-04T22:29:03.481Z,12.70
2023-02-04T22:33:08.051Z,11.40
2023-02-04T22:37:08.421Z,14.40
2023-02-04T22:41:09.262Z,13.00
2023-02-04T22:45:12.076Z,13.13
2023-02-04T22:49:19.664Z,14.30
2023-02-04T22:53:20.120Z,18.67
2023-02-04T22:57:20.949Z,19.03
2023-02-04T23:01:21.889Z,18.13
2023-02-04T23:05:25.041Z,18.00
2023-02-04T23:09:25.749Z,19.27
2023-02-04T23:13:26.541Z,17.80
2023-02-04T23:17:27.406Z,19.07
2023-02-04T23:21:30.794Z,21.83
2023-02-04T23:25:32.065Z,22.63
2023-02-04T23:29:35.864Z,18.67
2023-02-04T23:33:36.840Z,19.17
2023-02-04T23:37:40.210Z,24.17
2023-02-04T23:41:40.954Z,20.03
2023-02-04T23:45:43.083Z,24.97
2023-02-04T23:49:44.058Z,14.43
2023-02-04T23:53:48.362Z,14.60
2023-02-04T23:57:50.028Z,18.30
